Latest Weather Observations for Lord Howe Island

IDN60801

Issued at 8:32 pm EST Friday 21 July 2017 (issued every 30 minutes, with the page automatically refreshed every 10 minutes)

About weather observations | Map of weather stations | Latest weather observations for NSW | Other Formats
Station Details ID: 200839 Name: LORD HOWE ISLAND AERO Lat: -31.54 Lon: 159.08 Height: 5.0 m
Data from the previous 72 hours. | See also: Recent months at Lord Howe Island
Date/Time
EST
Temp
°C
App
Temp
°C
Dew
Point
°C
Rel
Hum
%
Delta-T
°C
Wind Press
QNH
hPa
Press
MSL
hPa
Rain since
9am
mm
Dir  Spd
km/h
Gust
km/h
Spd
kts
Gust
kts
21/08:30pm 16.7 11.0 11.2 70 3.0 SW 32 46 17 25 1014.5 1014.5 0.2
21/08:03pm 16.3 11.6 12.1 76 2.3 SW 28 48 15 26 1014.3 - 0.2
21/08:00pm 15.9 11.6 11.9 77 2.2 SW 26 43 14 23 1014.3 - 0.2
21/07:30pm 16.8 10.9 10.4 66 3.4 SW 32 43 17 23 1014.0 - 0.0
21/07:00pm 16.7 11.4 11.4 71 2.9 SW 30 46 16 25 1013.7 - 0.0
21/06:43pm 16.9 10.9 10.7 67 3.3 SW 33 54 18 29 1013.4 - 0.0
21/06:30pm 16.8 10.5 10.9 68 3.2 SW 35 50 19 27 1013.3 - 0.0
21/06:09pm 16.6 10.8 10.9 69 3.1 SW 32 50 17 27 1013.1 - 0.0
21/06:00pm 16.6 10.8 10.9 69 3.1 SW 32 46 17 25 1013.1 - 0.0
21/05:30pm 16.0 10.1 10.5 70 2.9 SW 32 48 17 26 1012.7 1012.7 0.0
21/05:11pm 16.9 11.2 11.0 68 3.2 SW 32 50 17 27 1012.4 - 0.0
21/05:00pm 16.8 11.2 10.2 65 3.5 SW 30 46 16 25 1012.3 - 0.0
21/04:30pm 16.8 11.5 11.1 69 3.1 SW 30 44 16 24 1011.9 - 0.0
21/04:20pm 16.8 11.5 11.3 70 3.0 SW 30 48 16 26 1011.8 - 0.0
21/04:00pm 17.0 11.3 11.7 71 2.9 SW 33 50 18 27 1011.8 - 0.0
21/03:37pm 16.8 10.9 10.6 67 3.3 SW 32 50 17 27 1011.6 - 0.0
21/03:30pm 17.0 11.4 11.5 70 3.0 SW 32 46 17 25 1011.5 - 0.0
21/03:00pm 17.0 11.2 10.8 67 3.3 SW 32 44 17 24 1011.4 - 0.0
21/02:30pm 16.7 10.1 10.1 65 3.5 WSW 35 54 19 29 1011.0 1011.0 0.0
21/02:01pm 17.1 10.4 9.5 61 4.0 WSW 35 54 19 29 1010.8 - 0.0
21/02:00pm 17.1 10.5 10.0 63 3.7 WSW 35 50 19 27 1010.8 - 0.0
21/01:34pm 17.3 10.4 10.2 63 3.8 WSW 37 56 20 30 1010.4 - 0.0
21/01:30pm 17.4 10.6 10.5 64 3.7 WSW 37 54 20 29 1010.5 - 0.0
21/01:16pm 17.3 10.2 9.7 61 4.0 WSW 37 56 20 30 1010.5 - 0.0
21/01:00pm 17.3 10.3 10.0 62 3.9 WSW 37 54 20 29 1010.4 - 0.0
21/12:34pm 17.2 10.4 9.4 60 4.1 WSW 35 54 19 29 1010.5 - 0.0
21/12:30pm 17.2 10.6 9.9 62 3.8 WSW 35 50 19 27 1010.6 - 0.0
21/12:00pm 17.1 11.1 10.9 67 3.3 WSW 33 57 18 31 1011.0 - 0.0
21/11:51am 17.0 10.4 10.1 64 3.6 WSW 35 54 19 29 1011.1 - 0.0
21/11:30am 17.0 10.9 10.4 65 3.5 WSW 33 48 18 26 1011.2 1011.2 0.0
21/11:00am 16.2 9.9 10.9 71 2.8 SW 35 57 19 31 1011.3 - 0.0
21/10:54am 16.8 10.5 11.1 69 3.1 SW 35 57 19 31 1011.2 - 0.0
21/10:30am 17.2 11.0 10.1 63 3.8 WSW 33 50 18 27 1011.5 - 0.0
21/10:17am 16.8 10.8 10.0 64 3.6 SW 32 50 17 27 1011.5 - 0.0
21/10:00am 16.7 10.8 11.0 69 3.1 WSW 33 46 18 25 1011.5 - 0.0
21/09:37am 16.5 9.8 9.7 64 3.6 WSW 35 54 19 29 1011.5 - 0.0
21/09:30am 16.3 9.4 10.4 68 3.1 WSW 37 54 20 29 1011.5 - 0.0
21/09:19am 16.4 10.2 11.3 72 2.7 WSW 35 56 19 30 1011.3 - 0.0
21/09:00am 16.5 9.9 9.9 65 3.5 SW 35 50 19 27 1011.1 - 0.0
21/08:35am 16.4 9.2 9.3 63 3.7 WSW 37 56 20 30 1010.8 - 0.0
21/08:30am 16.4 8.7 10.3 67 3.2 WSW 41 54 22 29 1010.7 1010.7 2.0
21/08:00am 16.3 9.2 9.5 64 3.5 SW 37 57 20 31 1010.4 - 2.0
21/07:31am 16.3 9.9 10.6 69 3.0 SW 35 54 19 29 1010.1 - 2.0
21/07:30am 16.2 9.2 10.1 67 3.2 SW 37 54 20 29 1010.1 - 2.0
21/07:08am 16.3 9.7 9.9 66 3.4 WSW 35 54 19 29 1009.8 - 2.0
21/07:00am 16.3 9.6 9.5 64 3.5 WSW 35 50 19 27 1009.8 - 2.0
21/06:34am 16.3 9.4 9.0 62 3.8 SW 35 54 19 29 1009.6 - 2.0
21/06:30am 16.4 9.8 10.0 66 3.4 SW 35 52 19 28 1009.6 - 2.0
21/06:00am 16.1 8.4 8.8 62 3.7 WSW 39 61 21 33 1009.4 - 2.0
21/05:30am 16.1 8.0 8.6 61 3.8 WSW 41 59 22 32 1009.1 1009.1 2.0
21/05:05am 16.0 8.8 10.5 70 2.9 WSW 39 57 21 31 1008.9 - 2.0
21/05:00am 15.8 8.3 11.0 73 2.6 WSW 41 57 22 31 1008.9 - 2.0
21/04:30am 15.5 8.0 10.9 74 2.4 WSW 41 61 22 33 1008.6 - 2.0
21/04:00am 14.2 7.4 11.9 86 1.2 WSW 39 57 21 31 1008.7 - 2.0
21/03:30am 15.1 7.5 10.5 74 2.4 WSW 41 59 22 32 1008.3 - 2.0
21/03:00am 15.0 8.9 11.8 81 1.7 SW 35 61 19 33 1008.5 - 2.0
21/02:55am 15.0 8.5 11.6 80 1.8 WSW 37 56 20 30 1008.4 - 2.0
21/02:49am 14.9 8.5 12.0 83 1.6 SW 37 54 20 29 1008.4 - 2.0
21/02:30am 13.6 6.2 12.3 92 0.7 WSW 43 67 23 36 1008.4 1008.4 1.8
21/02:27am 14.3 8.1 12.5 89 1.0 SW 37 61 20 33 1008.3 - 1.6
21/02:03am 15.5 8.7 10.7 73 2.5 SW 37 57 20 31 1008.2 - 1.4
21/02:00am 15.6 8.8 10.8 73 2.5 SW 37 54 20 29 1008.2 - 1.4
21/01:43am 14.8 7.8 11.4 80 1.8 WSW 39 57 21 31 1008.3 - 1.4
21/01:30am 15.6 8.5 11.0 74 2.5 SW 39 56 21 30 1008.2 - 1.4
21/01:00am 15.8 10.3 12.4 80 1.9 SW 33 54 18 29 1008.2 - 1.4
21/12:46am 15.4 9.1 12.3 82 1.7 SW 37 56 20 30 1008.3 - 1.4
21/12:30am 15.5 9.4 11.7 78 2.1 SW 35 52 19 28 1008.3 - 1.4
21/12:12am 15.9 9.7 12.6 81 1.8 SW 37 56 20 30 1008.2 - 1.4
21/12:00am 15.9 10.1 12.6 81 1.8 WSW 35 52 19 28 1008.2 - 1.4
 
Date/Time
EST
Temp
°C
App
Temp
°C
Dew
Point
°C
Rel
Hum
%
Delta-T
°C
Wind Press
QNH
hPa
Press
MSL
hPa
Rain since
9am
mm
Dir  Spd
km/h
Gust
km/h
Spd
kts
Gust
kts
20/11:48pm 15.6 9.1 12.9 84 1.5 SW 39 54 21 29 1008.3 - 1.4
20/11:30pm 14.2 6.5 12.2 88 1.1 WSW 44 70 24 38 1008.4 1008.4 1.4
20/11:27pm 14.7 6.9 11.7 82 1.6 WSW 44 70 24 38 1008.2 - 0.8
20/11:09pm 17.2 7.8 10.3 64 3.7 WSW 50 69 27 37 1008.0 - 0.8
20/11:00pm 17.1 6.9 10.2 64 3.7 WSW 54 69 29 37 1008.0 - 0.8
20/10:59pm 17.2 7.2 10.6 65 3.5 WSW 54 72 29 39 1008.1 - 0.8
20/10:30pm 17.2 7.7 12.3 73 2.7 WSW 54 69 29 37 1008.2 - 0.8
20/10:21pm 17.1 5.9 11.2 68 3.2 WSW 61 69 33 37 1008.3 - 0.8
20/10:00pm 17.1 9.6 12.2 73 2.7 WSW 43 65 23 35 1008.3 - 0.8
20/09:33pm 17.0 10.9 14.1 83 1.7 WSW 39 57 21 31 1008.2 - 0.6
20/09:30pm 16.9 10.8 14.0 83 1.6 WSW 39 54 21 29 1008.3 - 0.6
20/09:04pm 16.2 10.2 14.4 89 1.0 WSW 39 57 21 31 1008.3 - 0.6
20/09:00pm 16.9 10.4 14.0 83 1.6 WSW 41 56 22 30 1008.3 - 0.6
20/08:41pm 16.7 10.1 13.8 83 1.6 WSW 41 59 22 32 1008.3 - 0.6
20/08:30pm 16.0 11.6 15.2 95 0.5 WSW 32 43 17 23 1008.6 1008.6 0.6
20/08:00pm 16.4 12.5 14.4 88 1.1 SW 28 48 15 26 1008.6 - 0.6
20/07:52pm 16.2 12.4 14.6 90 0.9 SW 28 48 15 26 1008.7 - 0.6
20/07:38pm 15.8 11.5 14.3 91 0.9 SW 30 41 16 22 1008.7 - 0.6
20/07:30pm 15.4 10.6 14.1 92 0.7 SW 32 41 17 22 1008.7 - 0.6
20/07:17pm 15.1 8.7 12.1 82 1.6 WSW 37 61 20 33 1008.8 - 0.2
20/07:15pm 16.5 10.3 12.5 77 2.2 WSW 37 61 20 33 1008.5 - 0.0
20/07:00pm 17.2 12.3 12.5 74 2.6 WSW 30 43 16 23 1008.5 - 0.0
20/06:47pm 16.9 11.9 12.2 74 2.6 WSW 30 48 16 26 1008.5 - 0.0
20/06:30pm 16.7 11.9 13.0 79 2.1 SW 30 44 16 24 1008.5 - 0.0
20/06:01pm 17.4 11.3 11.9 70 3.0 WSW 35 54 19 29 1007.9 - 0.0
20/06:00pm 17.4 11.3 11.9 70 3.0 WSW 35 52 19 28 1007.9 - 0.0
20/05:32pm 17.3 11.3 12.0 71 2.9 WSW 35 54 19 29 1007.8 - 0.0
20/05:30pm 17.3 11.7 12.0 71 2.9 WSW 33 50 18 27 1007.9 1007.9 0.0
20/05:00pm 17.3 11.4 12.4 73 2.7 WSW 35 50 19 27 1007.6 - 0.0
20/04:30pm 17.2 11.7 11.9 71 2.9 SW 32 52 17 28 1007.4 - 0.0
20/04:03pm 17.4 11.8 12.1 71 2.9 SW 33 54 18 29 1007.1 - 0.0
20/04:00pm 17.4 11.4 12.1 71 2.9 SW 35 52 19 28 1007.1 - 0.0
20/03:35pm 17.5 12.5 13.4 77 2.3 WSW 32 50 17 27 1007.0 - 0.0
20/03:30pm 17.3 12.2 13.2 77 2.3 SW 32 44 17 24 1007.0 - 0.0
20/03:00pm 17.3 12.0 13.2 77 2.3 SW 33 50 18 27 1006.9 - 0.0
20/02:30pm 17.5 11.5 12.2 71 2.9 SW 35 54 19 29 1006.6 1006.6 0.0
20/02:00pm 18.0 12.1 12.5 70 3.1 SW 35 54 19 29 1006.5 - 0.0
20/01:46pm 18.2 12.5 13.1 72 2.9 WSW 35 54 19 29 1006.4 - 0.0
20/01:30pm 18.0 11.8 12.7 71 3.0 WSW 37 52 20 28 1006.3 - 0.0
20/01:00pm 17.7 11.3 13.2 75 2.5 WSW 39 50 21 27 1006.2 - 0.0
20/12:30pm 18.0 10.6 12.5 70 3.1 WSW 43 57 23 31 1006.2 - 0.0
20/12:00pm 17.8 11.7 11.8 68 3.3 SW 35 54 19 29 1006.4 - 0.0
20/11:30am 18.0 12.3 12.9 72 2.9 SW 35 56 19 30 1006.6 1006.6 0.0
20/11:00am 18.0 12.6 12.7 71 3.0 SW 33 56 18 30 1006.8 - 0.0
20/10:54am 18.3 13.2 13.6 74 2.7 SW 33 52 18 28 1006.8 - 0.0
20/10:30am 17.9 12.8 13.6 76 2.4 SW 33 46 18 25 1006.8 - 0.0
20/10:08am 17.1 12.8 14.4 84 1.5 SW 30 50 16 27 1007.0 - 0.0
20/10:00am 17.5 12.6 13.8 79 2.1 WSW 32 46 17 25 1006.7 - 0.0
20/09:49am 17.6 12.6 13.5 77 2.3 WSW 32 50 17 27 1006.8 - 0.0
20/09:30am 17.6 12.3 12.5 72 2.8 SW 32 48 17 26 1006.6 - 0.0
20/09:03am 17.6 12.3 12.5 72 2.8 WSW 32 50 17 27 1006.5 - 0.0
20/09:00am 17.6 12.1 12.5 72 2.8 WSW 33 46 18 25 1006.4 - 0.0
20/08:30am 17.2 12.0 12.7 75 2.5 SW 32 50 17 27 1006.1 1006.1 18.2
20/08:19am 17.2 12.0 12.9 76 2.4 SW 32 50 17 27 1005.8 - 18.2
20/08:00am 17.3 12.1 12.8 75 2.5 SW 32 46 17 25 1005.7 - 18.2
20/07:41am 15.7 11.5 13.4 86 1.3 SW 28 46 15 25 1005.5 - 18.2
20/07:30am 17.6 12.9 13.1 75 2.5 WSW 30 46 16 25 1005.0 - 18.0
20/07:11am 17.4 12.0 12.3 72 2.8 SW 32 50 17 27 1004.8 - 18.0
20/07:00am 17.3 11.8 12.6 74 2.6 SW 33 46 18 25 1004.9 - 18.0
20/06:30am 17.1 11.6 12.6 75 2.5 SW 33 56 18 30 1004.3 - 18.0
20/06:00am 17.1 11.7 13.8 81 1.9 WSW 35 54 19 29 1003.8 - 18.0
20/05:41am 16.8 11.7 13.1 79 2.1 SW 32 50 17 27 1003.4 - 18.0
20/05:30am 16.6 11.4 12.8 78 2.1 SW 32 44 17 24 1003.3 1003.3 18.0
20/05:01am 16.6 9.7 13.9 84 1.5 WSW 43 61 23 33 1002.8 - 18.0
20/05:00am 16.6 10.2 14.2 86 1.4 WSW 41 57 22 31 1002.8 - 18.0
20/04:44am 16.2 9.0 13.7 85 1.4 WSW 44 57 24 31 1002.6 - 18.0
20/04:30am 15.8 8.2 14.8 94 0.6 WSW 48 76 26 41 1002.5 - 18.0
20/04:24am 14.7 7.2 12.0 84 1.5 WSW 43 76 23 41 1002.5 - 17.8
20/04:23am 16.0 9.2 13.1 83 1.6 WSW 41 76 22 41 1002.4 - 17.2
20/04:01am 16.6 10.6 12.2 75 2.4 WSW 35 54 19 29 1002.3 - 17.0
20/04:00am 16.6 10.2 11.9 74 2.6 WSW 37 54 20 29 1002.4 - 17.0
20/03:48am 16.8 10.0 12.1 74 2.6 WSW 39 59 21 32 1002.2 - 17.0
20/03:30am 16.7 9.2 11.0 69 3.1 WSW 41 54 22 29 1002.2 - 17.0
20/03:00am 16.7 11.2 12.5 76 2.3 SW 33 54 18 29 1002.3 - 17.0
20/02:33am 16.9 9.8 12.2 74 2.6 WSW 41 59 22 32 1002.2 - 17.0
20/02:30am 16.7 9.7 12.5 76 2.3 WSW 41 56 22 30 1002.3 1002.3 17.0
20/02:23am 16.4 10.7 13.1 81 1.8 WSW 35 56 19 30 1002.3 - 17.0
20/02:00am 16.0 9.4 12.7 81 1.8 WSW 39 48 21 26 1002.4 - 17.0
20/01:32am 15.9 9.9 12.1 78 2.1 SW 35 61 19 33 1002.5 - 17.0
20/01:30am 16.5 11.1 12.3 76 2.3 SW 32 48 17 26 1002.6 - 17.0
20/01:07am 16.6 10.8 10.9 69 3.1 SW 32 52 17 28 1002.1 - 17.0
20/01:00am 16.7 11.0 11.0 69 3.1 SW 32 46 17 25 1002.1 - 17.0
20/12:34am 16.6 10.3 10.9 69 3.1 WSW 35 54 19 29 1002.1 - 17.0
20/12:30am 16.6 10.6 12.2 75 2.4 WSW 35 52 19 28 1002.1 - 17.0
20/12:01am 15.9 10.4 12.6 81 1.8 SW 33 54 18 29 1002.3 - 17.0
20/12:00am 15.8 10.5 12.5 81 1.8 SW 32 54 17 29 1002.3 - 17.0
 
Date/Time
EST
Temp
°C
App
Temp
°C
Dew
Point
°C
Rel
Hum
%
Delta-T
°C
Wind Press
QNH
hPa
Press
MSL
hPa
Rain since
9am
mm
Dir  Spd
km/h
Gust
km/h
Spd
kts
Gust
kts
19/11:43pm 14.6 7.1 12.8 89 1.0 WSW 44 65 24 35 1002.4 - 16.8
19/11:30pm 15.8 10.6 12.7 82 1.7 SW 32 50 17 27 1002.2 1002.2 16.4
19/11:00pm 15.4 9.6 11.6 78 2.0 SW 33 52 18 28 1002.4 - 16.4
19/10:50pm 15.1 10.0 13.1 88 1.1 SW 32 54 17 29 1002.4 - 16.4
19/10:41pm 14.5 10.2 13.2 92 0.7 SW 28 39 15 21 1002.5 - 16.4
19/10:30pm 13.0 8.7 12.1 94 0.5 SW 26 46 14 25 1002.8 - 16.4
19/10:18pm 12.6 6.0 10.1 85 1.3 SW 35 54 19 29 1003.0 - 15.8
19/10:05pm 15.6 8.0 10.4 71 2.7 WSW 41 61 22 33 1002.0 - 15.4
19/10:00pm 15.5 8.2 11.5 77 2.2 WSW 41 54 22 29 1002.0 - 15.4
19/09:30pm 14.7 7.2 10.9 78 2.0 WSW 41 61 22 33 1002.3 - 15.4
19/09:00pm 15.8 8.5 11.6 76 2.3 WSW 41 63 22 34 1002.3 - 15.4
19/08:30pm 15.9 6.9 10.2 69 3.0 WSW 48 69 26 37 1002.1 1002.1 15.4
19/08:25pm 16.0 7.3 10.1 68 3.1 WSW 46 69 25 37 1002.1 - 15.4
19/08:00pm 15.7 7.2 10.7 72 2.7 WSW 46 59 25 32 1002.3 - 15.4
19/07:39pm 15.7 8.6 10.9 73 2.6 WSW 39 57 21 31 1002.1 - 15.4
19/07:30pm 15.6 8.8 10.6 72 2.6 SW 37 54 20 29 1002.1 - 15.4
19/07:00pm 15.3 7.8 12.6 84 1.5 WSW 44 63 24 34 1002.4 - 15.4
19/06:30pm 15.5 7.0 11.9 79 2.0 WSW 48 82 26 44 1002.0 - 15.4
19/06:25pm 16.6 8.5 10.2 66 3.4 WSW 43 76 23 41 1001.9 - 15.4
19/06:20pm 16.5 10.4 11.6 73 2.7 WSW 35 56 19 30 1001.9 - 15.4
19/06:00pm 16.4 10.5 11.3 72 2.7 SW 33 48 18 26 1001.8 - 15.4
19/05:42pm 16.8 8.5 10.2 65 3.5 WSW 44 63 24 34 1001.7 - 15.4
19/05:30pm 16.8 8.7 10.2 65 3.5 WSW 43 56 23 30 1001.7 1001.7 15.4
19/05:00pm 17.2 8.7 9.1 59 4.2 WSW 44 59 24 32 1001.5 - 15.4
19/04:30pm 17.3 9.1 9.7 61 4.0 WSW 43 54 23 29 1001.3 - 15.2
19/04:00pm 17.3 10.7 11.3 68 3.2 WSW 37 50 20 27 1001.2 - 15.2
19/03:30pm 17.5 11.7 12.6 73 2.7 WSW 35 46 19 25 1001.1 - 15.2
19/03:00pm 17.8 11.8 14.3 80 2.0 W 39 50 21 27 1000.9 - 15.2
19/02:30pm 17.1 12.2 14.4 84 1.6 WSW 33 43 18 23 1001.2 1001.2 15.2
19/02:00pm 17.5 12.4 13.8 79 2.1 W 33 41 18 22 1001.3 - 15.2
19/01:48pm 17.7 13.7 15.1 85 1.5 W 30 43 16 23 1001.3 - 15.2
19/01:30pm 17.7 16.4 16.7 94 0.6 W 19 24 10 13 1001.4 - 15.2
19/01:00pm 16.7 14.9 15.4 92 0.8 W 19 24 10 13 1001.7 - 15.2
19/12:30pm 17.5 17.7 15.7 89 1.1 W 9 13 5 7 1002.0 - 15.2
19/12:00pm 17.4 - 17.6 - - NNE 9 17 5 9 1002.6 - 15.2
19/11:30am 15.5 - - - - NE 15 20 8 11 1003.8 1003.8 15.2
19/11:00am 14.2 - 14.5 - - E 24 28 13 15 1004.1 - 15.2
19/10:44am 14.8 - - - - NE 7 17 4 9 1005.3 - 15.0
19/10:30am 14.2 - - - - W 7 13 4 7 1006.9 - 14.8
19/10:00am 13.3 - 13.5 - - SSW 9 13 5 7 1007.3 - 13.4
19/09:30am 12.4 9.9 12.4 100 0.0 SW 17 24 9 13 1007.8 - 7.8
19/09:23am 12.7 9.4 12.7 100 0.0 SSW 22 32 12 17 1008.0 - 5.8
19/09:00am 16.0 15.4 15.7 98 0.2 NW 13 30 7 16 1007.6 - 0.6
19/08:30am 16.3 15.8 14.8 91 0.9 WNW 11 19 6 10 1007.3 1007.3 2.8
19/08:00am 16.5 14.6 15.2 92 0.8 N 19 33 10 18 1007.4 - 2.2
19/07:30am 15.4 14.3 15.2 99 0.1 N 15 24 8 13 1007.5 - 2.0
19/07:00am 15.7 13.1 13.7 88 1.1 NNW 20 41 11 22 1008.7 - 1.2
19/06:36am 17.6 12.6 13.3 76 2.4 W 32 54 17 29 1008.5 - 0.4
19/06:30am 17.8 13.2 12.3 70 3.0 WNW 28 41 15 22 1008.4 - 0.2
19/06:00am 18.1 11.8 13.6 75 2.6 W 39 61 21 33 1008.6 - 0.2
19/05:36am 18.6 14.5 13.7 73 2.8 WNW 28 52 15 28 1008.8 - 0.2
19/05:30am 19.1 16.5 13.9 72 3.0 WNW 20 35 11 19 1008.9 1008.9 0.2
19/05:00am 19.6 17.9 15.7 78 2.3 WNW 19 30 10 16 1008.3 - 0.2
19/04:30am 19.8 18.6 17.6 87 1.3 NW 20 39 11 21 1008.8 - 0.2
19/04:00am 19.8 18.6 17.6 87 1.3 NNW 20 32 11 17 1008.7 - 0.2
19/03:30am 19.6 18.7 17.7 89 1.2 NNW 19 41 10 22 1008.8 - 0.2
19/03:00am 19.7 18.6 17.8 89 1.2 NNW 20 35 11 19 1009.5 - 0.2
19/02:30am 19.5 19.0 17.8 90 1.0 NNW 17 39 9 21 1009.7 1009.7 0.2
19/02:00am 19.4 18.6 17.9 91 0.9 NNW 19 33 10 18 1010.1 - 0.2
19/01:30am 19.4 19.2 19.4 100 0.0 N 19 39 10 21 1010.7 - 0.2
19/01:27am 19.4 19.0 19.4 100 0.0 N 20 39 11 21 1010.9 - 0.2
19/01:00am 19.5 19.4 19.5 100 0.0 NNW 19 33 10 18 1011.2 - 0.2
19/12:30am 19.5 19.4 19.5 100 0.0 NNW 19 37 10 20 1011.7 - 0.2
19/12:00am 19.6 19.3 19.6 100 0.0 NNW 20 43 11 23 1012.0 - 0.2
 
Date/Time
EST
Temp
°C
App
Temp
°C
Dew
Point
°C
Rel
Hum
%
Delta-T
°C
Wind Press
QNH
hPa
Press
MSL
hPa
Rain since
9am
mm
Dir  Spd
km/h
Gust
km/h
Spd
kts
Gust
kts
18/11:30pm 19.5 20.1 19.5 100 0.0 N 15 35 8 19 1012.5 1012.5 0.2
18/11:00pm 19.5 20.1 19.5 100 0.0 NNW 15 37 8 20 1013.0 - 0.2
18/10:30pm 19.5 20.5 19.5 100 0.0 N 13 35 7 19 1013.7 - 0.2
18/10:00pm 19.6 20.7 19.6 100 0.0 NW 13 26 7 14 1014.4 - 0.2
18/09:30pm 19.6 20.7 19.6 100 0.0 NW 13 35 7 19 1014.6 - 0.2
18/09:27pm 19.6 20.7 19.6 100 0.0 NNW 13 28 7 15 1014.7 - 0.2
18/09:20pm 19.5 20.1 19.5 100 0.0 N 15 26 8 14 1014.8 - 0.2
18/09:07pm 19.6 20.3 19.6 100 0.0 NNW 15 30 8 16 1015.0 - 0.2
18/09:00pm 19.6 20.3 19.6 100 0.0 NNW 15 24 8 13 1015.0 - 0.2
18/08:43pm 19.6 19.3 19.6 100 0.0 NNW 20 33 11 18 1015.3 - 0.2
18/08:32pm 19.5 19.4 19.5 100 0.0 NNW 19 37 10 20 1015.2 - 0.2
18/08:30pm 19.5 19.8 19.5 100 0.0 NNW 17 37 9 20 1015.2 1015.2 0.2
18/08:21pm 19.5 20.5 19.5 100 0.0 NNW 13 22 7 12 1015.2 - 0.2

Other Formats:

Comma delimited format used in spreadsheet applications
http://www.bom.gov.au/fwo/IDN60801/IDN60801.94995.axf

JavaScript Object Notation format (JSON) in row-major order
http://www.bom.gov.au/fwo/IDN60801/IDN60801.94995.json